Milwaukee, Wisconsin
Traffic Map
Current Weather Conditions
Milwaukee, Wisconsin
Overcast
Overcast
34°
Feels Like: 26°
Wind Chill: 26° Ceiling: 5500
Heat Index: 34° Visibility: 7mi
Dew Point: 28° Wind: 10mph
Humidity: 79% Direction: 160° (SSE)
Pressure: 29.96in Gusts: 0mph
Raw Report DataKMKE 220952Z 16009KT 7SM FEW040 OVC055 01/M02 A2996 RMK AO2 SLP153 T00111022 $
Traffic Incident Summary
Active as of:
Severity:
Category:
InformationThere was an issue retrieving the traffic information for this location. Please try a different location or try again shortly.
Advertisements
Track Severe Weather on mobile